createdAt,value
2022-08-31T00:00:34.493Z,88.86
2022-08-31T00:03:25.611Z,88.55
2022-08-31T00:05:59.643Z,88.11
2022-08-31T00:08:28.475Z,87.82
2022-08-31T00:10:56.212Z,88.44
2022-08-31T00:13:27.496Z,88.69
2022-08-31T00:15:56.838Z,88.73
2022-08-31T00:18:24.630Z,88.27
2022-08-31T00:20:52.136Z,87.98
2022-08-31T00:23:19.577Z,88.62
2022-08-31T00:25:49.266Z,89.54
2022-08-31T00:28:18.500Z,89.91
2022-08-31T00:30:46.928Z,90.08
2022-08-31T00:33:14.490Z,91.00
2022-08-31T00:35:44.076Z,90.21
2022-08-31T00:38:12.936Z,90.59
2022-08-31T00:40:45.334Z,89.25
2022-08-31T00:43:35.159Z,89.56
2022-08-31T00:46:02.682Z,90.28
2022-08-31T00:48:30.252Z,90.10
2022-08-31T00:50:58.668Z,90.15
2022-08-31T00:53:27.296Z,90.06
2022-08-31T00:55:54.706Z,89.91
2022-08-31T00:58:22.589Z,89.82
2022-08-31T01:00:51.251Z,89.77
2022-08-31T01:03:19.663Z,89.69
2022-08-31T01:05:47.475Z,89.42
2022-08-31T01:08:15.159Z,89.69
2022-08-31T01:10:45.350Z,89.61
2022-08-31T01:13:15.627Z,89.87
2022-08-31T01:15:54.186Z,90.59
2022-08-31T01:18:24.329Z,91.02
2022-08-31T01:21:33.057Z,91.56
2022-08-31T01:24:04.761Z,91.96
2022-08-31T01:26:32.900Z,91.54
2022-08-31T01:29:05.637Z,91.43
2022-08-31T01:31:44.743Z,90.55
2022-08-31T01:34:13.435Z,90.33
2022-08-31T01:36:43.838Z,90.03
2022-08-31T01:39:11.600Z,89.82
2022-08-31T01:41:41.841Z,89.81
2022-08-31T01:44:11.474Z,89.74
2022-08-31T01:46:38.973Z,89.38
2022-08-31T01:49:06.848Z,89.77
2022-08-31T01:51:35.642Z,89.34
2022-08-31T01:54:04.535Z,89.02
2022-08-31T01:56:42.021Z,88.77
2022-08-31T01:59:13.854Z,88.63
2022-08-31T02:01:47.072Z,88.72
2022-08-31T02:04:18.006Z,88.69
2022-08-31T02:06:50.406Z,88.51
2022-08-31T02:09:18.894Z,88.36
2022-08-31T02:11:46.175Z,87.98
2022-08-31T02:14:14.530Z,87.96
2022-08-31T02:16:42.183Z,87.74
2022-08-31T02:19:09.722Z,87.30
2022-08-31T02:21:37.188Z,87.40
2022-08-31T02:24:06.222Z,87.26
2022-08-31T02:26:33.811Z,87.41
2022-08-31T02:29:02.324Z,87.16
2022-08-31T02:31:29.940Z,87.25
2022-08-31T02:33:57.226Z,87.45
2022-08-31T02:36:25.204Z,87.43
2022-08-31T02:38:53.117Z,87.44
2022-08-31T02:41:20.608Z,87.50
2022-08-31T02:43:48.055Z,87.41
2022-08-31T02:46:15.541Z,87.44
2022-08-31T02:48:43.080Z,87.31
2022-08-31T02:51:11.577Z,87.22
2022-08-31T02:53:39.766Z,86.90
2022-08-31T02:56:08.326Z,87.33
2022-08-31T02:58:37.063Z,87.36
2022-08-31T03:01:05.440Z,87.61
2022-08-31T03:03:34.844Z,88.98
2022-08-31T03:06:03.402Z,90.04
2022-08-31T03:08:31.384Z,89.79
2022-08-31T03:10:58.674Z,89.63
2022-08-31T03:13:25.907Z,90.22
2022-08-31T03:15:53.405Z,90.31
2022-08-31T03:18:20.671Z,92.44
2022-08-31T03:20:47.871Z,93.01
2022-08-31T03:23:15.500Z,93.78
2022-08-31T03:25:43.401Z,93.06
2022-08-31T03:28:12.099Z,92.45
2022-08-31T03:30:40.833Z,92.99
2022-08-31T03:33:08.773Z,93.59
2022-08-31T03:35:36.140Z,94.62
2022-08-31T03:38:05.491Z,93.91
2022-08-31T03:40:32.818Z,93.29
2022-08-31T03:43:00.695Z,92.88
2022-08-31T03:45:28.429Z,92.59
2022-08-31T03:47:55.647Z,92.47
2022-08-31T03:50:24.351Z,92.63
2022-08-31T03:52:53.927Z,92.74
2022-08-31T03:55:28.733Z,93.41
2022-08-31T03:57:56.971Z,94.45
2022-08-31T04:00:26.959Z,94.63
2022-08-31T04:02:57.416Z,94.34
2022-08-31T04:05:26.553Z,94.75
2022-08-31T04:07:55.829Z,94.25
2022-08-31T04:10:23.556Z,94.31
2022-08-31T04:12:51.153Z,94.61
2022-08-31T04:15:19.392Z,93.49
2022-08-31T04:17:47.424Z,93.60
2022-08-31T04:20:15.176Z,92.79
2022-08-31T04:22:42.402Z,92.55
2022-08-31T04:25:10.565Z,91.66
2022-08-31T04:27:41.196Z,89.96
2022-08-31T04:30:10.082Z,89.94
2022-08-31T04:32:37.496Z,89.84
2022-08-31T04:35:06.278Z,89.45
2022-08-31T04:37:34.464Z,88.81
2022-08-31T04:40:03.556Z,88.41
2022-08-31T04:42:31.246Z,88.16
2022-08-31T04:44:59.653Z,88.15
2022-08-31T04:47:26.873Z,87.83
2022-08-31T04:49:54.414Z,87.51
2022-08-31T04:52:23.901Z,86.66
2022-08-31T04:54:56.441Z,86.55
2022-08-31T04:57:23.647Z,86.27
2022-08-31T04:59:50.897Z,86.13
2022-08-31T05:02:18.365Z,84.94
2022-08-31T05:04:45.637Z,85.09
2022-08-31T05:07:12.855Z,85.56
2022-08-31T05:09:40.344Z,84.83
2022-08-31T05:12:07.759Z,85.40
2022-08-31T05:14:35.957Z,85.51
2022-08-31T05:17:08.069Z,85.10
2022-08-31T05:19:42.187Z,84.63
2022-08-31T05:22:09.796Z,84.61
2022-08-31T05:24:39.016Z,84.33
2022-08-31T05:27:07.253Z,83.95
2022-08-31T05:29:34.773Z,82.38
2022-08-31T05:32:02.931Z,81.68
2022-08-31T05:34:30.185Z,81.42
2022-08-31T05:37:19.647Z,81.34
2022-08-31T05:39:47.261Z,80.43
2022-08-31T05:42:15.712Z,81.33
2022-08-31T05:44:42.998Z,81.84
2022-08-31T05:47:10.613Z,81.35
2022-08-31T05:49:40.179Z,81.30
2022-08-31T05:52:08.810Z,80.79
2022-08-31T05:54:38.423Z,80.61
2022-08-31T05:57:07.102Z,80.58
2022-08-31T05:59:35.415Z,79.87
2022-08-31T06:02:03.306Z,79.10
2022-08-31T06:04:30.869Z,78.91
2022-08-31T06:06:58.307Z,78.48
2022-08-31T06:09:25.873Z,77.94
2022-08-31T06:11:54.316Z,77.00
2022-08-31T06:14:23.618Z,76.58
2022-08-31T06:16:51.292Z,76.27
2022-08-31T06:19:20.169Z,75.34
2022-08-31T06:21:51.001Z,74.26
2022-08-31T06:24:19.978Z,73.32
2022-08-31T06:26:58.598Z,73.12
2022-08-31T06:29:29.474Z,73.03
2022-08-31T06:31:56.989Z,72.40
2022-08-31T06:34:24.785Z,71.61
2022-08-31T06:36:52.290Z,70.09
2022-08-31T06:39:19.693Z,69.56
2022-08-31T06:41:48.965Z,68.76
2022-08-31T06:44:16.461Z,67.36
2022-08-31T06:46:44.767Z,67.24
2022-08-31T06:49:15.386Z,66.26
2022-08-31T06:51:43.979Z,65.14
2022-08-31T06:54:30.693Z,64.88
2022-08-31T06:56:59.706Z,63.38
2022-08-31T06:59:29.828Z,60.54
2022-08-31T07:02:00.184Z,61.40
2022-08-31T07:04:31.203Z,61.89
2022-08-31T07:06:58.469Z,60.95
2022-08-31T07:09:25.756Z,59.61
2022-08-31T07:11:53.805Z,57.85
2022-08-31T07:14:25.868Z,55.58
2022-08-31T07:16:56.770Z,55.14
2022-08-31T07:19:26.792Z,53.89
2022-08-31T07:21:58.532Z,54.50
2022-08-31T07:24:31.596Z,54.74
2022-08-31T07:27:04.599Z,54.60
2022-08-31T07:29:40.588Z,52.69
2022-08-31T07:32:14.343Z,51.86
2022-08-31T07:34:42.046Z,51.83
2022-08-31T07:37:28.037Z,51.03
2022-08-31T07:40:14.356Z,50.05
2022-08-31T07:42:45.064Z,48.59
2022-08-31T07:45:23.209Z,47.43
2022-08-31T07:47:55.377Z,47.13
2022-08-31T07:50:26.893Z,48.77
2022-08-31T07:52:55.924Z,50.93
2022-08-31T07:55:26.565Z,52.33
2022-08-31T07:57:55.370Z,52.53
2022-08-31T08:00:36.206Z,50.49
2022-08-31T08:03:07.994Z,48.22
2022-08-31T08:05:38.854Z,49.25
2022-08-31T08:08:13.533Z,50.33
2022-08-31T08:10:46.679Z,51.62
2022-08-31T08:13:20.803Z,52.75
2022-08-31T08:15:52.053Z,53.47
2022-08-31T08:18:20.774Z,53.32
2022-08-31T08:20:49.718Z,53.88
2022-08-31T08:23:26.855Z,54.56
2022-08-31T08:26:01.265Z,54.68
2022-08-31T08:28:40.118Z,51.59
2022-08-31T08:31:16.126Z,48.91
2022-08-31T08:33:45.483Z,46.23
2022-08-31T08:36:17.155Z,43.12
2022-08-31T08:38:47.492Z,38.82
2022-08-31T08:41:28.098Z,33.86
2022-08-31T08:44:00.818Z,28.93
2022-08-31T08:46:40.511Z,29.48
2022-08-31T08:50:06.574Z,25.89
2022-08-31T08:52:44.624Z,24.43
2022-08-31T08:55:22.241Z,26.37
2022-08-31T08:57:52.240Z,23.25
2022-08-31T09:00:28.662Z,24.10
2022-08-31T09:03:42.143Z,20.38
2022-08-31T09:06:21.355Z,18.53
2022-08-31T09:09:20.530Z,17.93
2022-08-31T09:12:12.554Z,16.35
2022-08-31T09:15:28.421Z,18.13
2022-08-31T09:18:33.051Z,20.40
2022-08-31T09:21:21.565Z,23.75
2022-08-31T09:24:15.258Z,21.55
2022-08-31T09:27:20.945Z,16.20
2022-08-31T09:30:00.663Z,14.59
2022-08-31T09:32:32.929Z,13.37
2022-08-31T09:35:29.283Z,14.56
2022-08-31T09:38:07.877Z,14.04
2022-08-31T09:40:48.535Z,14.25
2022-08-31T09:43:38.287Z,14.18
2022-08-31T09:46:36.276Z,13.54
2022-08-31T09:49:05.494Z,12.75
2022-08-31T09:51:38.128Z,12.82
2022-08-31T09:54:27.243Z,13.05
2022-08-31T09:56:58.111Z,14.38
2022-08-31T09:59:42.065Z,14.17
2022-08-31T10:02:26.860Z,13.96
2022-08-31T10:04:56.892Z,15.05
2022-08-31T10:07:49.351Z,15.45
2022-08-31T10:10:30.006Z,17.44
2022-08-31T10:13:22.719Z,18.54
2022-08-31T10:16:26.284Z,21.06
2022-08-31T10:19:06.473Z,20.04
2022-08-31T10:21:57.097Z,18.58
2022-08-31T10:24:52.336Z,14.66
2022-08-31T10:27:32.330Z,14.76
2022-08-31T10:30:31.713Z,15.17
2022-08-31T10:33:18.028Z,15.12
2022-08-31T10:35:57.733Z,14.71
2022-08-31T10:38:42.317Z,14.03
2022-08-31T10:41:32.624Z,16.66
2022-08-31T10:44:23.781Z,19.79
2022-08-31T10:46:58.018Z,21.42
2022-08-31T10:49:26.874Z,23.25
2022-08-31T10:52:33.389Z,24.97
2022-08-31T10:55:25.762Z,26.67
2022-08-31T10:58:20.014Z,22.86
2022-08-31T11:01:05.990Z,18.16
2022-08-31T11:04:08.834Z,20.22
2022-08-31T11:06:48.585Z,23.59
2022-08-31T11:09:57.709Z,26.30
2022-08-31T11:12:41.742Z,27.21
2022-08-31T11:15:30.632Z,28.76
2022-08-31T11:18:22.290Z,29.50
2022-08-31T11:21:20.295Z,29.76
2022-08-31T11:24:06.811Z,30.46
2022-08-31T11:27:05.662Z,30.68
2022-08-31T11:29:51.962Z,31.29
2022-08-31T11:32:46.010Z,30.91
2022-08-31T11:35:15.668Z,30.64
2022-08-31T11:37:55.881Z,29.39
2022-08-31T11:41:14.150Z,25.81
2022-08-31T11:43:52.203Z,26.34
2022-08-31T11:46:26.716Z,24.58
2022-08-31T11:48:55.188Z,24.97
2022-08-31T11:51:41.513Z,21.98
2022-08-31T11:54:41.683Z,23.01
2022-08-31T11:57:15.794Z,22.90
2022-08-31T11:59:49.323Z,21.25
2022-08-31T12:02:19.872Z,22.38
2022-08-31T12:04:52.291Z,20.23
2022-08-31T12:07:29.279Z,18.41
2022-08-31T12:10:26.739Z,15.46
2022-08-31T12:13:09.502Z,15.78
2022-08-31T12:16:23.861Z,17.62
2022-08-31T12:19:13.279Z,16.43
2022-08-31T12:21:58.905Z,16.65
2022-08-31T12:24:49.300Z,18.40
2022-08-31T12:27:43.639Z,20.03
2022-08-31T12:30:25.735Z,20.79
2022-08-31T12:33:20.964Z,21.40
2022-08-31T12:35:56.465Z,21.52
2022-08-31T12:38:28.337Z,21.11
2022-08-31T12:40:58.219Z,20.39
2022-08-31T12:43:37.717Z,19.97
2022-08-31T12:46:05.054Z,20.68
2022-08-31T12:49:26.658Z,20.67
2022-08-31T12:52:07.009Z,20.81
2022-08-31T12:55:12.832Z,20.77
2022-08-31T12:58:05.670Z,21.70
2022-08-31T13:00:39.683Z,21.66
2022-08-31T13:03:20.953Z,22.31
2022-08-31T13:06:08.500Z,23.21
2022-08-31T13:08:54.279Z,23.99
2022-08-31T13:11:24.338Z,25.08
2022-08-31T13:14:24.229Z,25.62
2022-08-31T13:17:10.667Z,26.56
2022-08-31T13:19:40.477Z,27.87
2022-08-31T13:22:17.065Z,28.18
2022-08-31T13:24:53.788Z,28.80
2022-08-31T13:27:28.673Z,30.68
2022-08-31T13:30:12.867Z,30.81
2022-08-31T13:32:45.649Z,31.64
2022-08-31T13:35:20.054Z,31.82
2022-08-31T13:38:03.972Z,31.71
2022-08-31T13:40:39.438Z,30.89
2022-08-31T13:43:10.810Z,30.98
2022-08-31T13:45:58.411Z,31.06
2022-08-31T13:48:40.739Z,31.17
2022-08-31T13:51:18.552Z,30.94
2022-08-31T13:54:12.886Z,30.80
2022-08-31T13:56:59.037Z,30.66
2022-08-31T13:59:34.369Z,30.64
2022-08-31T14:02:18.656Z,31.36
2022-08-31T14:05:00.485Z,31.65
2022-08-31T14:07:40.981Z,31.73
2022-08-31T14:10:19.411Z,31.52
2022-08-31T14:13:02.651Z,31.87
2022-08-31T14:15:49.038Z,31.76
2022-08-31T14:18:40.256Z,31.93
2022-08-31T14:21:24.176Z,32.20
2022-08-31T14:23:53.549Z,32.55
2022-08-31T14:26:26.532Z,32.78
2022-08-31T14:29:01.634Z,32.79
2022-08-31T14:31:52.474Z,32.05
2022-08-31T14:34:36.711Z,32.40
2022-08-31T14:37:19.770Z,32.85
2022-08-31T14:39:55.244Z,32.81
2022-08-31T14:42:36.428Z,33.41
2022-08-31T14:45:20.402Z,34.21
2022-08-31T14:47:52.392Z,34.45
2022-08-31T14:50:26.451Z,34.66
2022-08-31T14:52:55.440Z,34.56
2022-08-31T14:55:26.271Z,34.67
2022-08-31T14:58:05.232Z,34.18
2022-08-31T15:00:36.782Z,33.31
2022-08-31T15:03:04.068Z,33.75
2022-08-31T15:05:34.111Z,33.91
2022-08-31T15:08:01.547Z,34.40
2022-08-31T15:10:28.763Z,34.33
2022-08-31T15:12:55.952Z,34.88
2022-08-31T15:15:23.868Z,35.12
2022-08-31T15:17:52.067Z,35.62
2022-08-31T15:20:21.172Z,36.40
2022-08-31T15:22:49.913Z,36.52
2022-08-31T15:25:19.921Z,36.95
2022-08-31T15:27:47.245Z,37.26
2022-08-31T15:30:19.080Z,37.23
2022-08-31T15:32:48.889Z,37.56
2022-08-31T15:35:22.434Z,37.18
2022-08-31T15:37:54.185Z,37.14
2022-08-31T15:40:22.355Z,37.58
2022-08-31T15:42:51.038Z,37.85
2022-08-31T15:45:18.693Z,38.55
2022-08-31T15:48:04.801Z,39.57
2022-08-31T15:50:32.785Z,39.85
2022-08-31T15:53:09.592Z,40.23
2022-08-31T15:55:40.851Z,40.30
2022-08-31T15:58:09.886Z,40.85
2022-08-31T16:00:38.407Z,41.57
2022-08-31T16:03:06.364Z,41.67
2022-08-31T16:05:39.190Z,42.31
2022-08-31T16:08:11.994Z,43.51
2022-08-31T16:10:45.365Z,43.21
2022-08-31T16:13:15.978Z,43.86
2022-08-31T16:15:51.864Z,44.47
2022-08-31T16:18:22.037Z,44.22
2022-08-31T16:20:50.563Z,44.67
2022-08-31T16:23:18.130Z,45.17
2022-08-31T16:25:49.137Z,45.16
2022-08-31T16:28:20.068Z,45.10
2022-08-31T16:30:51.275Z,45.42
2022-08-31T16:33:20.724Z,45.42
2022-08-31T16:35:48.646Z,46.04
2022-08-31T16:38:16.867Z,46.26
2022-08-31T16:40:44.809Z,46.71
2022-08-31T16:43:13.308Z,46.59
2022-08-31T16:45:41.864Z,47.15
2022-08-31T16:48:29.525Z,48.29
2022-08-31T16:50:59.824Z,48.09
2022-08-31T16:53:28.642Z,48.38
2022-08-31T16:55:57.701Z,48.72
2022-08-31T16:58:48.123Z,49.05
2022-08-31T17:01:16.692Z,49.56
2022-08-31T17:03:51.496Z,50.01
2022-08-31T17:06:19.356Z,50.08
2022-08-31T17:08:47.154Z,50.22
2022-08-31T17:11:26.367Z,50.30
2022-08-31T17:13:59.180Z,50.69
2022-08-31T17:16:32.312Z,51.19
2022-08-31T17:19:02.128Z,51.35
2022-08-31T17:21:32.702Z,51.44
2022-08-31T17:24:03.538Z,51.83
2022-08-31T17:26:34.699Z,52.68
2022-08-31T17:29:06.137Z,52.21
2022-08-31T17:31:43.411Z,53.13
2022-08-31T17:34:16.768Z,52.89
2022-08-31T17:36:47.939Z,53.75
2022-08-31T17:39:18.835Z,54.32
2022-08-31T17:41:48.868Z,54.75
2022-08-31T17:44:20.106Z,54.75
2022-08-31T17:46:52.363Z,55.31
2022-08-31T17:49:24.478Z,55.19
2022-08-31T17:51:55.279Z,55.03
2022-08-31T17:54:32.862Z,56.05
2022-08-31T17:57:03.393Z,56.25
2022-08-31T17:59:39.360Z,56.32
2022-08-31T18:02:26.674Z,57.26
2022-08-31T18:04:54.331Z,58.26
2022-08-31T18:07:22.150Z,58.31
2022-08-31T18:09:49.679Z,58.86
2022-08-31T18:12:22.030Z,58.86
2022-08-31T18:14:50.547Z,60.03
2022-08-31T18:17:18.423Z,59.17
2022-08-31T18:19:45.957Z,60.18
2022-08-31T18:22:14.777Z,60.48
2022-08-31T18:24:43.066Z,60.71
2022-08-31T18:27:15.544Z,60.80
2022-08-31T18:29:44.633Z,60.96
2022-08-31T18:32:13.250Z,61.78
2022-08-31T18:34:44.952Z,62.37
2022-08-31T18:37:13.228Z,62.75
2022-08-31T18:40:07.717Z,62.59
2022-08-31T18:42:56.845Z,63.28
2022-08-31T18:45:27.249Z,63.30
2022-08-31T18:50:48.786Z,64.55
2022-08-31T18:53:27.586Z,64.98
2022-08-31T18:55:56.661Z,65.29
2022-08-31T18:58:24.146Z,64.65
2022-08-31T19:00:58.954Z,66.11
2022-08-31T19:03:28.387Z,65.31
2022-08-31T19:05:57.124Z,65.27
2022-08-31T19:08:26.365Z,65.87
2022-08-31T19:10:56.322Z,66.46
2022-08-31T19:13:32.209Z,66.43
2022-08-31T19:16:03.610Z,66.96
2022-08-31T19:18:35.651Z,67.64
2022-08-31T19:21:19.293Z,67.36
2022-08-31T19:23:48.932Z,67.75
2022-08-31T19:26:37.372Z,68.30
2022-08-31T19:29:09.508Z,68.61
2022-08-31T19:31:40.994Z,69.11
2022-08-31T19:34:09.343Z,68.31
2022-08-31T19:36:41.706Z,69.37
2022-08-31T19:39:13.448Z,69.26
2022-08-31T19:41:51.486Z,69.09
2022-08-31T19:44:20.408Z,69.54
2022-08-31T19:46:52.951Z,68.71
2022-08-31T19:49:21.323Z,68.87
2022-08-31T19:51:52.876Z,68.93
2022-08-31T19:54:21.796Z,71.16
2022-08-31T19:56:49.683Z,70.03
2022-08-31T19:59:21.237Z,70.67
2022-08-31T20:01:53.218Z,71.05
2022-08-31T20:04:26.266Z,71.38
2022-08-31T20:06:54.980Z,71.58
2022-08-31T20:09:24.690Z,71.52
2022-08-31T20:11:55.472Z,71.28
2022-08-31T20:14:23.643Z,71.47
2022-08-31T20:16:52.296Z,71.28
2022-08-31T20:19:25.141Z,71.37
2022-08-31T20:22:00.090Z,71.55
2022-08-31T20:24:28.304Z,71.57
2022-08-31T20:26:59.992Z,72.44
2022-08-31T20:29:27.541Z,72.66
2022-08-31T20:31:56.242Z,73.18
2022-08-31T20:34:28.035Z,73.08
2022-08-31T20:37:01.295Z,73.87
2022-08-31T20:39:32.060Z,73.87
2022-08-31T20:42:00.627Z,74.44
2022-08-31T20:44:37.898Z,74.89
2022-08-31T20:47:29.192Z,74.35
2022-08-31T20:49:58.745Z,74.32
2022-08-31T20:52:31.955Z,74.74
2022-08-31T20:55:02.691Z,74.21
2022-08-31T20:57:36.515Z,75.04
2022-08-31T21:00:07.199Z,74.71
2022-08-31T21:02:35.259Z,74.71
2022-08-31T21:05:33.916Z,74.18
2022-08-31T21:07:53.310Z,74.35
2022-08-31T21:10:36.260Z,74.49
2022-08-31T21:13:07.222Z,74.22
2022-08-31T21:15:34.771Z,74.23
2022-08-31T21:18:02.177Z,74.32
2022-08-31T21:20:29.684Z,74.07
2022-08-31T21:22:56.873Z,74.34
2022-08-31T21:25:24.111Z,73.87
2022-08-31T21:27:53.014Z,74.02
2022-08-31T21:30:20.482Z,74.17
2022-08-31T21:32:48.226Z,74.25
2022-08-31T21:35:15.849Z,73.66
2022-08-31T21:37:43.416Z,73.79
2022-08-31T21:40:11.605Z,74.31
2022-08-31T21:42:45.062Z,73.68
2022-08-31T21:45:12.341Z,73.34
2022-08-31T21:47:39.726Z,74.19
2022-08-31T21:50:08.115Z,75.16
2022-08-31T21:52:35.603Z,75.63
2022-08-31T21:55:05.760Z,75.51
2022-08-31T21:57:32.988Z,74.88
2022-08-31T22:00:01.807Z,74.04
2022-08-31T22:02:29.686Z,74.45
2022-08-31T22:04:57.166Z,74.01
2022-08-31T22:07:25.694Z,73.85
2022-08-31T22:09:54.644Z,74.34
2022-08-31T22:12:23.595Z,73.83
2022-08-31T22:14:50.839Z,73.95
2022-08-31T22:17:18.286Z,73.71
2022-08-31T22:19:45.515Z,74.12
2022-08-31T22:22:13.605Z,73.46
2022-08-31T22:24:42.152Z,73.34
2022-08-31T22:27:12.516Z,73.79
2022-08-31T22:29:40.893Z,73.79
2022-08-31T22:32:15.250Z,73.60
2022-08-31T22:34:43.623Z,73.90
2022-08-31T22:37:13.913Z,74.80
2022-08-31T22:39:42.654Z,74.25
2022-08-31T22:42:12.073Z,74.70
2022-08-31T22:44:40.668Z,75.22
2022-08-31T22:47:08.144Z,75.65
2022-08-31T22:49:35.648Z,75.86
2022-08-31T22:52:03.728Z,75.51
2022-08-31T22:54:30.987Z,75.87
2022-08-31T22:56:58.345Z,75.14
2022-08-31T22:59:28.228Z,75.29
2022-08-31T23:02:02.098Z,76.01
2022-08-31T23:04:33.519Z,76.48
2022-08-31T23:07:04.409Z,75.99
2022-08-31T23:09:34.104Z,76.05
2022-08-31T23:12:04.845Z,76.51
2022-08-31T23:14:32.793Z,76.68
2022-08-31T23:17:05.561Z,76.70
2022-08-31T23:19:42.412Z,76.87
2022-08-31T23:22:15.154Z,76.89
2022-08-31T23:24:47.096Z,77.13
2022-08-31T23:27:22.144Z,76.85
2022-08-31T23:29:56.793Z,77.21
2022-08-31T23:32:28.074Z,76.92
2022-08-31T23:34:58.486Z,77.37
2022-08-31T23:37:27.419Z,76.68
2022-08-31T23:39:56.117Z,76.27
2022-08-31T23:42:26.759Z,76.42
2022-08-31T23:44:55.429Z,76.34
2022-08-31T23:47:28.433Z,76.94
2022-08-31T23:49:57.895Z,77.46
2022-08-31T23:52:29.276Z,77.61
2022-08-31T23:54:59.779Z,77.83
2022-08-31T23:57:33.345Z,77.81
